Terminal Aerodrome Forecast
Issued by NWS Tuscon, AZ

Home | Current Version | Previous Version | Text Only | Print | Product List | Glossary On
Versions: 1 2 3 4 5 6 7 8 9 10 11 12 13 14 15 16 17 18 19 20
000
FTUS45 KTWC 020500
TAFDUG
TAF
KDUG 020535Z 0206/0306 36015G25KT P6SM OVC060
     FM020700 36009KT P6SM SCT060 BKN130
     FM021100 VRB04KT P6SM SCT130 BKN200
     FM021700 15006KT P6SM SCT070 SCT200
     FM022100 18011KT P6SM VCTS SCT070CB SCT120
     FM030100 17008KT P6SM SCT070 BKN120=

USA.gov is the U.S. government's official web portal to all federal, state and local government web resources and services.